sensor_id;sensor_type;location;lat;lon;timestamp;pressure;altitude;pressure_sealevel;temperature;humidity
23616;BME280;11985;49.404;7.734;2022-12-22T00:03:32;96552.41;;;8.56;100.00
23616;BME280;11985;49.404;7.734;2022-12-22T00:08:52;96547.16;;;8.56;100.00
23616;BME280;11985;49.404;7.734;2022-12-22T00:14:11;96540.25;;;8.55;100.00
23616;BME280;11985;49.404;7.734;2022-12-22T00:19:32;96525.94;;;8.57;100.00
23616;BME280;11985;49.404;7.734;2022-12-22T00:24:51;96522.28;;;8.58;100.00
23616;BME280;11985;49.404;7.734;2022-12-22T00:30:11;96503.69;;;8.60;100.00
23616;BME280;11985;49.404;7.734;2022-12-22T00:35:32;96494.81;;;8.61;100.00
23616;BME280;11985;49.404;7.734;2022-12-22T00:40:51;96488.56;;;8.62;100.00
23616;BME280;11985;49.404;7.734;2022-12-22T00:46:13;96474.81;;;8.60;100.00
23616;BME280;11985;49.404;7.734;2022-12-22T00:51:34;96469.38;;;8.61;100.00
23616;BME280;11985;49.404;7.734;2022-12-22T00:56:54;96468.13;;;8.64;100.00
23616;BME280;11985;49.404;7.734;2022-12-22T01:02:13;96465.28;;;8.65;100.00
23616;BME280;11985;49.404;7.734;2022-12-22T01:07:34;96473.16;;;8.65;100.00
23616;BME280;11985;49.404;7.734;2022-12-22T01:12:53;96460.84;;;8.66;100.00
23616;BME280;11985;49.404;7.734;2022-12-22T01:18:12;96462.66;;;8.72;100.00
23616;BME280;11985;49.404;7.734;2022-12-22T01:23:32;96453.13;;;8.71;100.00
23616;BME280;11985;49.404;7.734;2022-12-22T01:28:51;96446.72;;;8.67;100.00
23616;BME280;11985;49.404;7.734;2022-12-22T01:34:11;96450.34;;;8.66;100.00
23616;BME280;11985;49.404;7.734;2022-12-22T01:39:32;96439.84;;;8.66;100.00
23616;BME280;11985;49.404;7.734;2022-12-22T01:44:50;96440.69;;;8.66;100.00
23616;BME280;11985;49.404;7.734;2022-12-22T01:50:10;96437.03;;;8.67;100.00
23616;BME280;11985;49.404;7.734;2022-12-22T01:55:30;96430.53;;;8.70;100.00
23616;BME280;11985;49.404;7.734;2022-12-22T02:00:50;96423.25;;;8.72;100.00
23616;BME280;11985;49.404;7.734;2022-12-22T02:06:19;96419.41;;;8.75;100.00
23616;BME280;11985;49.404;7.734;2022-12-22T02:11:48;96419.63;;;8.73;100.00
23616;BME280;11985;49.404;7.734;2022-12-22T02:17:16;96409.13;;;8.73;100.00
23616;BME280;11985;49.404;7.734;2022-12-22T02:22:45;96416.38;;;8.71;100.00
23616;BME280;11985;49.404;7.734;2022-12-22T02:28:11;96414.56;;;8.71;100.00
23616;BME280;11985;49.404;7.734;2022-12-22T02:33:30;96398.63;;;8.73;100.00
23616;BME280;11985;49.404;7.734;2022-12-22T02:38:57;96384.69;;;8.72;100.00
23616;BME280;11985;49.404;7.734;2022-12-22T02:44:24;96385.50;;;8.73;100.00
23616;BME280;11985;49.404;7.734;2022-12-22T02:49:52;96373.38;;;8.72;100.00
23616;BME280;11985;49.404;7.734;2022-12-22T02:55:11;96357.47;;;8.67;100.00
23616;BME280;11985;49.404;7.734;2022-12-22T03:00:33;96359.72;;;8.63;100.00
23616;BME280;11985;49.404;7.734;2022-12-22T03:05:53;96355.09;;;8.59;100.00
23616;BME280;11985;49.404;7.734;2022-12-22T03:11:12;96355.34;;;8.57;100.00
23616;BME280;11985;49.404;7.734;2022-12-22T03:16:32;96358.53;;;8.59;100.00
23616;BME280;11985;49.404;7.734;2022-12-22T03:21:52;96339.97;;;8.61;100.00
23616;BME280;11985;49.404;7.734;2022-12-22T03:27:11;96340.53;;;8.63;100.00
23616;BME280;11985;49.404;7.734;2022-12-22T03:32:14;96320.91;;;8.65;100.00
23616;BME280;11985;49.404;7.734;2022-12-22T03:37:15;96313.84;;;8.66;100.00
23616;BME280;11985;49.404;7.734;2022-12-22T03:42:17;96315.31;;;8.62;100.00
23616;BME280;11985;49.404;7.734;2022-12-22T03:47:37;96310.66;;;8.64;100.00
23616;BME280;11985;49.404;7.734;2022-12-22T03:52:39;96301.59;;;8.60;100.00
23616;BME280;11985;49.404;7.734;2022-12-22T03:57:40;96286.88;;;8.59;100.00
23616;BME280;11985;49.404;7.734;2022-12-22T04:02:43;96278.41;;;8.57;100.00
23616;BME280;11985;49.404;7.734;2022-12-22T04:07:45;96272.16;;;8.58;100.00
23616;BME280;11985;49.404;7.734;2022-12-22T04:12:50;96259.81;;;8.58;100.00
23616;BME280;11985;49.404;7.734;2022-12-22T04:17:56;96263.69;;;8.56;100.00
23616;BME280;11985;49.404;7.734;2022-12-22T04:22:58;96260.28;;;8.55;100.00
23616;BME280;11985;49.404;7.734;2022-12-22T04:28:00;96263.69;;;8.56;100.00
23616;BME280;11985;49.404;7.734;2022-12-22T04:33:02;96256.41;;;8.58;100.00
23616;BME280;11985;49.404;7.734;2022-12-22T04:38:04;96261.81;;;8.63;100.00
23616;BME280;11985;49.404;7.734;2022-12-22T04:43:06;96257.72;;;8.67;100.00
23616;BME280;11985;49.404;7.734;2022-12-22T04:48:08;96260.94;;;8.69;100.00
23616;BME280;11985;49.404;7.734;2022-12-22T04:53:10;96259.91;;;8.70;100.00
23616;BME280;11985;49.404;7.734;2022-12-22T04:58:12;96258.44;;;8.74;100.00
23616;BME280;11985;49.404;7.734;2022-12-22T05:03:15;96260.63;;;8.77;100.00
23616;BME280;11985;49.404;7.734;2022-12-22T05:08:16;96248.09;;;8.79;100.00
23616;BME280;11985;49.404;7.734;2022-12-22T05:13:18;96251.06;;;8.83;100.00
23616;BME280;11985;49.404;7.734;2022-12-22T05:18:21;96252.31;;;8.80;100.00
23616;BME280;11985;49.404;7.734;2022-12-22T05:23:22;96256.53;;;8.81;100.00
23616;BME280;11985;49.404;7.734;2022-12-22T05:28:24;96244.44;;;8.80;100.00
23616;BME280;11985;49.404;7.734;2022-12-22T05:33:27;96231.75;;;8.77;100.00
23616;BME280;11985;49.404;7.734;2022-12-22T05:38:28;96244.88;;;8.77;100.00
23616;BME280;11985;49.404;7.734;2022-12-22T05:43:30;96238.47;;;8.73;100.00
23616;BME280;11985;49.404;7.734;2022-12-22T05:48:33;96251.59;;;8.73;100.00
23616;BME280;11985;49.404;7.734;2022-12-22T05:53:35;96239.91;;;8.69;100.00
23616;BME280;11985;49.404;7.734;2022-12-22T05:58:37;96237.72;;;8.66;100.00
23616;BME280;11985;49.404;7.734;2022-12-22T06:03:40;96235.97;;;8.60;100.00
23616;BME280;11985;49.404;7.734;2022-12-22T06:08:42;96251.16;;;8.58;100.00
23616;BME280;11985;49.404;7.734;2022-12-22T06:13:44;96252.16;;;8.57;100.00
23616;BME280;11985;49.404;7.734;2022-12-22T06:18:47;96224.31;;;8.56;100.00
23616;BME280;11985;49.404;7.734;2022-12-22T06:23:49;96225.94;;;8.57;100.00
23616;BME280;11985;49.404;7.734;2022-12-22T06:28:50;96230.72;;;8.60;100.00
23616;BME280;11985;49.404;7.734;2022-12-22T06:33:53;96227.53;;;8.58;100.00
23616;BME280;11985;49.404;7.734;2022-12-22T06:38:55;96238.44;;;8.55;100.00
23616;BME280;11985;49.404;7.734;2022-12-22T06:43:56;96250.63;;;8.49;100.00
23616;BME280;11985;49.404;7.734;2022-12-22T06:48:59;96243.63;;;8.43;100.00
23616;BME280;11985;49.404;7.734;2022-12-22T06:54:01;96257.41;;;8.38;100.00
23616;BME280;11985;49.404;7.734;2022-12-22T06:59:02;96267.28;;;8.36;100.00
23616;BME280;11985;49.404;7.734;2022-12-22T07:04:05;96269.13;;;8.36;100.00
23616;BME280;11985;49.404;7.734;2022-12-22T07:09:07;96266.06;;;8.39;100.00
23616;BME280;11985;49.404;7.734;2022-12-22T07:14:10;96275.91;;;8.43;100.00
23616;BME280;11985;49.404;7.734;2022-12-22T07:19:13;96278.09;;;8.46;100.00
23616;BME280;11985;49.404;7.734;2022-12-22T07:24:14;96270.66;;;8.43;100.00
23616;BME280;11985;49.404;7.734;2022-12-22T07:29:22;96289.00;;;8.43;100.00
23616;BME280;11985;49.404;7.734;2022-12-22T07:34:25;96289.25;;;8.42;100.00
23616;BME280;11985;49.404;7.734;2022-12-22T07:39:27;96275.78;;;8.38;100.00
23616;BME280;11985;49.404;7.734;2022-12-22T07:44:28;96279.38;;;8.37;100.00
23616;BME280;11985;49.404;7.734;2022-12-22T07:49:31;96267.28;;;8.36;100.00
23616;BME280;11985;49.404;7.734;2022-12-22T07:54:50;96271.09;;;8.40;100.00
23616;BME280;11985;49.404;7.734;2022-12-22T07:59:52;96262.34;;;8.46;100.00
23616;BME280;11985;49.404;7.734;2022-12-22T08:04:55;96269.66;;;8.44;100.00
23616;BME280;11985;49.404;7.734;2022-12-22T08:09:57;96263.81;;;8.42;100.00
23616;BME280;11985;49.404;7.734;2022-12-22T08:14:58;96262.47;;;8.33;100.00
23616;BME280;11985;49.404;7.734;2022-12-22T08:20:02;96257.25;;;8.27;100.00
23616;BME280;11985;49.404;7.734;2022-12-22T08:25:04;96256.91;;;8.23;100.00
23616;BME280;11985;49.404;7.734;2022-12-22T08:30:09;96263.34;;;8.20;100.00
23616;BME280;11985;49.404;7.734;2022-12-22T08:35:12;96272.25;;;8.19;100.00
23616;BME280;11985;49.404;7.734;2022-12-22T08:40:18;96278.53;;;8.18;100.00
23616;BME280;11985;49.404;7.734;2022-12-22T08:45:21;96279.91;;;8.21;100.00
23616;BME280;11985;49.404;7.734;2022-12-22T08:50:24;96288.78;;;8.20;100.00
23616;BME280;11985;49.404;7.734;2022-12-22T08:55:25;96280.69;;;8.21;100.00
23616;BME280;11985;49.404;7.734;2022-12-22T09:00:27;96313.81;;;8.23;100.00
23616;BME280;11985;49.404;7.734;2022-12-22T09:05:31;96294.84;;;8.20;100.00
23616;BME280;11985;49.404;7.734;2022-12-22T09:10:33;96310.22;;;8.17;100.00
23616;BME280;11985;49.404;7.734;2022-12-22T09:15:35;96331.19;;;8.17;100.00
23616;BME280;11985;49.404;7.734;2022-12-22T09:20:38;96338.47;;;8.15;100.00
23616;BME280;11985;49.404;7.734;2022-12-22T09:25:40;96360.28;;;8.09;100.00
23616;BME280;11985;49.404;7.734;2022-12-22T09:30:41;96370.59;;;8.04;100.00
23616;BME280;11985;49.404;7.734;2022-12-22T09:35:44;96381.50;;;8.07;100.00
23616;BME280;11985;49.404;7.734;2022-12-22T09:40:46;96387.31;;;8.09;100.00
23616;BME280;11985;49.404;7.734;2022-12-22T09:45:47;96403.00;;;8.16;100.00
23616;BME280;11985;49.404;7.734;2022-12-22T09:50:50;96424.78;;;8.23;100.00
23616;BME280;11985;49.404;7.734;2022-12-22T09:55:52;96445.94;;;8.28;100.00
23616;BME280;11985;49.404;7.734;2022-12-22T10:01:00;96444.91;;;8.29;100.00
23616;BME280;11985;49.404;7.734;2022-12-22T10:06:12;96451.34;;;8.33;100.00
23616;BME280;11985;49.404;7.734;2022-12-22T10:11:17;96463.06;;;8.31;100.00
23616;BME280;11985;49.404;7.734;2022-12-22T10:16:21;96484.84;;;8.31;100.00
23616;BME280;11985;49.404;7.734;2022-12-22T10:21:25;96484.06;;;8.31;100.00
23616;BME280;11985;49.404;7.734;2022-12-22T10:26:30;96483.25;;;8.30;100.00
23616;BME280;11985;49.404;7.734;2022-12-22T10:31:35;96503.44;;;8.30;100.00
23616;BME280;11985;49.404;7.734;2022-12-22T10:36:45;96490.53;;;8.28;100.00
23616;BME280;11985;49.404;7.734;2022-12-22T10:41:48;96506.88;;;8.30;100.00
23616;BME280;11985;49.404;7.734;2022-12-22T10:46:52;96506.88;;;8.30;100.00
23616;BME280;11985;49.404;7.734;2022-12-22T10:52:08;96520.56;;;8.32;100.00
23616;BME280;11985;49.404;7.734;2022-12-22T10:57:27;96522.41;;;8.38;100.00
23616;BME280;11985;49.404;7.734;2022-12-22T11:02:32;96526.03;;;8.37;100.00
23616;BME280;11985;49.404;7.734;2022-12-22T11:07:36;96533.69;;;8.32;100.00
23616;BME280;11985;49.404;7.734;2022-12-22T11:12:50;96547.25;;;8.29;100.00
23616;BME280;11985;49.404;7.734;2022-12-22T11:18:00;96538.16;;;8.25;100.00
23616;BME280;11985;49.404;7.734;2022-12-22T11:23:14;96570.06;;;8.22;100.00
23616;BME280;11985;49.404;7.734;2022-12-22T11:28:28;96580.94;;;8.26;100.00
23616;BME280;11985;49.404;7.734;2022-12-22T11:33:43;96575.91;;;8.24;100.00
23616;BME280;11985;49.404;7.734;2022-12-22T11:38:57;96597.94;;;8.16;100.00
23616;BME280;11985;49.404;7.734;2022-12-22T11:44:17;96599.56;;;8.11;100.00
23616;BME280;11985;49.404;7.734;2022-12-22T11:49:36;96603.59;;;8.13;100.00
23616;BME280;11985;49.404;7.734;2022-12-22T11:54:54;96595.91;;;8.18;100.00
23616;BME280;11985;49.404;7.734;2022-12-22T12:00:06;96596.69;;;8.26;100.00
23616;BME280;11985;49.404;7.734;2022-12-22T12:05:17;96609.59;;;8.34;100.00
23616;BME280;11985;49.404;7.734;2022-12-22T12:10:26;96615.63;;;8.34;100.00
23616;BME280;11985;49.404;7.734;2022-12-22T12:15:30;96614.63;;;8.35;100.00
23616;BME280;11985;49.404;7.734;2022-12-22T12:20:41;96625.91;;;8.42;100.00
23616;BME280;11985;49.404;7.734;2022-12-22T12:25:53;96621.69;;;8.41;100.00
23616;BME280;11985;49.404;7.734;2022-12-22T12:31:00;96632.38;;;8.46;100.00
23616;BME280;11985;49.404;7.734;2022-12-22T12:36:10;96634.97;;;8.53;100.00
23616;BME280;11985;49.404;7.734;2022-12-22T12:41:20;96629.72;;;8.53;100.00
23616;BME280;11985;49.404;7.734;2022-12-22T12:46:58;96630.91;;;8.57;100.00
23616;BME280;11985;49.404;7.734;2022-12-22T12:52:05;96632.50;;;8.65;100.00
23616;BME280;11985;49.404;7.734;2022-12-22T12:57:26;96614.66;;;8.80;100.00
23616;BME280;11985;49.404;7.734;2022-12-22T13:02:36;96617.41;;;8.92;100.00
23616;BME280;11985;49.404;7.734;2022-12-22T13:08:03;96626.09;;;8.92;100.00
23616;BME280;11985;49.404;7.734;2022-12-22T13:13:09;96634.06;;;8.79;100.00
23616;BME280;11985;49.404;7.734;2022-12-22T13:18:37;96638.94;;;8.69;100.00
23616;BME280;11985;49.404;7.734;2022-12-22T13:23:42;96653.50;;;8.65;100.00
23616;BME280;11985;49.404;7.734;2022-12-22T13:28:49;96647.44;;;8.64;100.00
23616;BME280;11985;49.404;7.734;2022-12-22T13:34:02;96645.00;;;8.69;100.00
23616;BME280;11985;49.404;7.734;2022-12-22T13:39:14;96630.47;;;8.67;100.00
23616;BME280;11985;49.404;7.734;2022-12-22T13:44:27;96637.75;;;8.65;100.00
23616;BME280;11985;49.404;7.734;2022-12-22T13:49:30;96644.63;;;8.59;100.00
23616;BME280;11985;49.404;7.734;2022-12-22T13:54:35;96638.97;;;8.62;100.00
23616;BME280;11985;49.404;7.734;2022-12-22T13:59:41;96652.66;;;8.71;100.00
23616;BME280;11985;49.404;7.734;2022-12-22T14:04:49;96657.06;;;8.77;100.00
23616;BME280;11985;49.404;7.734;2022-12-22T14:10:03;96662.34;;;8.70;100.00
23616;BME280;11985;49.404;7.734;2022-12-22T14:15:13;96665.25;;;8.56;100.00
23616;BME280;11985;49.404;7.734;2022-12-22T14:20:20;96665.66;;;8.53;100.00
23616;BME280;11985;49.404;7.734;2022-12-22T14:25:33;96658.00;;;8.51;100.00
23616;BME280;11985;49.404;7.734;2022-12-22T14:30:40;96665.72;;;8.39;100.00
23616;BME280;11985;49.404;7.734;2022-12-22T14:35:43;96670.56;;;8.36;100.00
23616;BME280;11985;49.404;7.734;2022-12-22T14:40:45;96678.22;;;8.24;100.00
23616;BME280;11985;49.404;7.734;2022-12-22T14:45:49;96677.44;;;8.17;100.00
23616;BME280;11985;49.404;7.734;2022-12-22T14:50:52;96683.06;;;8.14;100.00
23616;BME280;11985;49.404;7.734;2022-12-22T14:55:54;96680.47;;;8.14;100.00
23616;BME280;11985;49.404;7.734;2022-12-22T15:01:13;96680.44;;;8.20;100.00
23616;BME280;11985;49.404;7.734;2022-12-22T15:06:29;96670.53;;;8.29;100.00
23616;BME280;11985;49.404;7.734;2022-12-22T15:11:35;96672.16;;;8.30;100.00
23616;BME280;11985;49.404;7.734;2022-12-22T15:16:40;96672.97;;;8.37;100.00
23616;BME280;11985;49.404;7.734;2022-12-22T15:21:42;96674.97;;;8.35;100.00
23616;BME280;11985;49.404;7.734;2022-12-22T15:26:45;96679.84;;;8.38;100.00
23616;BME280;11985;49.404;7.734;2022-12-22T15:31:48;96681.03;;;8.36;100.00
23616;BME280;11985;49.404;7.734;2022-12-22T15:36:50;96674.97;;;8.35;100.00
23616;BME280;11985;49.404;7.734;2022-12-22T15:41:51;96667.72;;;8.37;100.00
23616;BME280;11985;49.404;7.734;2022-12-22T15:46:56;96670.13;;;8.32;100.00
23616;BME280;11985;49.404;7.734;2022-12-22T15:51:59;96668.94;;;8.28;100.00
23616;BME280;11985;49.404;7.734;2022-12-22T15:57:03;96672.16;;;8.30;100.00
23616;BME280;11985;49.404;7.734;2022-12-22T16:02:09;96673.75;;;8.38;100.00
23616;BME280;11985;49.404;7.734;2022-12-22T16:07:11;96671.97;;;8.38;100.00
23616;BME280;11985;49.404;7.734;2022-12-22T16:12:15;96664.25;;;8.43;100.00
23616;BME280;11985;49.404;7.734;2022-12-22T16:17:22;96662.66;;;8.42;100.00
23616;BME280;11985;49.404;7.734;2022-12-22T16:22:29;96658.22;;;8.43;100.00
23616;BME280;11985;49.404;7.734;2022-12-22T16:27:31;96649.97;;;8.39;100.00
23616;BME280;11985;49.404;7.734;2022-12-22T16:32:34;96648.34;;;8.38;100.00
23616;BME280;11985;49.404;7.734;2022-12-22T16:37:39;96646.72;;;8.37;100.00
23616;BME280;11985;49.404;7.734;2022-12-22T16:42:43;96634.63;;;8.36;100.00
23616;BME280;11985;49.404;7.734;2022-12-22T16:47:48;96623.31;;;8.36;100.00
23616;BME280;11985;49.404;7.734;2022-12-22T16:52:51;96622.50;;;8.29;100.00
23616;BME280;11985;49.404;7.734;2022-12-22T16:57:52;96613.00;;;8.34;100.00
23616;BME280;11985;49.404;7.734;2022-12-22T17:02:56;96611.78;;;8.43;100.00
23616;BME280;11985;49.404;7.734;2022-12-22T17:07:59;96608.34;;;8.43;100.00
23616;BME280;11985;49.404;7.734;2022-12-22T17:13:02;96609.16;;;8.43;100.00
23616;BME280;11985;49.404;7.734;2022-12-22T17:18:13;96603.91;;;8.43;100.00
23616;BME280;11985;49.404;7.734;2022-12-22T17:23:27;96594.66;;;8.41;100.00
23616;BME280;11985;49.404;7.734;2022-12-22T17:28:29;96588.19;;;8.37;100.00
23616;BME280;11985;49.404;7.734;2022-12-22T17:33:33;96589.81;;;8.31;100.00
23616;BME280;11985;49.404;7.734;2022-12-22T17:38:35;96577.69;;;8.30;100.00
23616;BME280;11985;49.404;7.734;2022-12-22T17:43:36;96561.38;;;8.28;100.00
23616;BME280;11985;49.404;7.734;2022-12-22T17:48:49;96553.31;;;8.23;100.00
23616;BME280;11985;49.404;7.734;2022-12-22T17:53:51;96553.31;;;8.23;100.00
23616;BME280;11985;49.404;7.734;2022-12-22T17:58:54;96541.59;;;8.26;100.00
23616;BME280;11985;49.404;7.734;2022-12-22T18:10:09;96537.31;;;8.38;100.00
23616;BME280;11985;49.404;7.734;2022-12-22T18:15:44;96528.25;;;8.40;100.00
23616;BME280;11985;49.404;7.734;2022-12-22T18:21:20;96536.53;;;8.37;100.00
23616;BME280;11985;49.404;7.734;2022-12-22T18:26:45;96527.84;;;8.37;100.00
23616;BME280;11985;49.404;7.734;2022-12-22T18:31:47;96521.19;;;8.34;100.00
23616;BME280;11985;49.404;7.734;2022-12-22T18:36:49;96508.69;;;8.36;100.00
23616;BME280;11985;49.404;7.734;2022-12-22T18:41:52;96505.66;;;8.39;100.00
23616;BME280;11985;49.404;7.734;2022-12-22T18:46:55;96501.41;;;8.38;100.00
23616;BME280;11985;49.404;7.734;2022-12-22T18:52:19;96493.53;;;8.38;100.00
23616;BME280;11985;49.404;7.734;2022-12-22T18:57:27;96495.16;;;8.39;100.00
23616;BME280;11985;49.404;7.734;2022-12-22T19:02:32;96490.50;;;8.41;100.00
23616;BME280;11985;49.404;7.734;2022-12-22T19:07:41;96477.53;;;8.46;100.00
23616;BME280;11985;49.404;7.734;2022-12-22T19:12:44;96481.72;;;8.54;100.00
23616;BME280;11985;49.404;7.734;2022-12-22T19:17:49;96470.22;;;8.55;100.00
23616;BME280;11985;49.404;7.734;2022-12-22T19:22:51;96450.44;;;8.53;100.00
23616;BME280;11985;49.404;7.734;2022-12-22T19:28:02;96447.81;;;8.53;100.00
23616;BME280;11985;49.404;7.734;2022-12-22T19:33:08;96447.81;;;8.53;100.00
23616;BME280;11985;49.404;7.734;2022-12-22T19:38:17;96438.75;;;8.49;100.00
23616;BME280;11985;49.404;7.734;2022-12-22T19:43:22;96429.91;;;8.50;100.00
23616;BME280;11985;49.404;7.734;2022-12-22T19:48:24;96421.41;;;8.48;100.00
23616;BME280;11985;49.404;7.734;2022-12-22T19:53:26;96417.00;;;8.41;100.00
23616;BME280;11985;49.404;7.734;2022-12-22T19:58:35;96410.56;;;8.37;100.00
23616;BME280;11985;49.404;7.734;2022-12-22T20:03:39;96397.47;;;8.37;100.00
23616;BME280;11985;49.404;7.734;2022-12-22T20:08:43;96399.09;;;8.38;100.00
23616;BME280;11985;49.404;7.734;2022-12-22T20:13:46;96399.22;;;8.43;100.00
23616;BME280;11985;49.404;7.734;2022-12-22T20:18:48;96390.53;;;8.50;100.00
23616;BME280;11985;49.404;7.734;2022-12-22T20:23:51;96381.47;;;8.45;100.00
23616;BME280;11985;49.404;7.734;2022-12-22T20:28:54;96372.97;;;8.43;100.00
23616;BME280;11985;49.404;7.734;2022-12-22T20:33:55;96366.59;;;8.39;100.00
23616;BME280;11985;49.404;7.734;2022-12-22T20:38:58;96365.97;;;8.37;100.00
23616;BME280;11985;49.404;7.734;2022-12-22T20:44:02;96351.25;;;8.36;100.00
23616;BME280;11985;49.404;7.734;2022-12-22T20:49:11;96348.81;;;8.35;100.00
23616;BME280;11985;49.404;7.734;2022-12-22T20:54:15;96341.16;;;8.33;100.00
23616;BME280;11985;49.404;7.734;2022-12-22T20:59:21;96337.94;;;8.31;100.00
23616;BME280;11985;49.404;7.734;2022-12-22T21:04:26;96324.59;;;8.33;100.00
23616;BME280;11985;49.404;7.734;2022-12-22T21:09:28;96332.13;;;8.29;100.00
23616;BME280;11985;49.404;7.734;2022-12-22T21:14:31;96326.25;;;8.27;100.00
23616;BME280;11985;49.404;7.734;2022-12-22T21:19:33;96322.63;;;8.28;100.00
23616;BME280;11985;49.404;7.734;2022-12-22T21:24:34;96301.41;;;8.36;100.00
23616;BME280;11985;49.404;7.734;2022-12-22T21:29:38;96297.13;;;8.42;100.00
23616;BME280;11985;49.404;7.734;2022-12-22T21:34:40;96276.13;;;8.42;100.00
23616;BME280;11985;49.404;7.734;2022-12-22T21:39:42;96257.19;;;8.40;100.00
23616;BME280;11985;49.404;7.734;2022-12-22T21:44:47;96249.91;;;8.35;100.00
23616;BME280;11985;49.404;7.734;2022-12-22T21:49:50;96230.97;;;8.33;100.00
23616;BME280;11985;49.404;7.734;2022-12-22T21:54:52;96214.22;;;8.34;100.00
23616;BME280;11985;49.404;7.734;2022-12-22T21:59:55;96207.22;;;8.28;100.00
23616;BME280;11985;49.404;7.734;2022-12-22T22:04:57;96187.44;;;8.26;100.00
23616;BME280;11985;49.404;7.734;2022-12-22T22:09:59;96190.28;;;8.24;100.00
23616;BME280;11985;49.404;7.734;2022-12-22T22:15:08;96186.66;;;8.25;100.00
23616;BME280;11985;49.404;7.734;2022-12-22T22:20:13;96182.19;;;8.26;100.00
23616;BME280;11985;49.404;7.734;2022-12-22T22:25:16;96187.09;;;8.22;100.00
23616;BME280;11985;49.404;7.734;2022-12-22T22:30:21;96177.03;;;8.19;100.00
23616;BME280;11985;49.404;7.734;2022-12-22T22:35:25;96171.78;;;8.19;100.00
23616;BME280;11985;49.404;7.734;2022-12-22T22:40:27;96178.28;;;8.16;100.00
23616;BME280;11985;49.404;7.734;2022-12-22T22:45:37;96183.53;;;8.16;100.00
23616;BME280;11985;49.404;7.734;2022-12-22T22:50:40;96177.09;;;8.12;100.00
23616;BME280;11985;49.404;7.734;2022-12-22T22:55:43;96163.59;;;8.09;100.00
23616;BME280;11985;49.404;7.734;2022-12-22T23:00:46;96168.28;;;8.07;100.00
23616;BME280;11985;49.404;7.734;2022-12-22T23:06:05;96167.53;;;8.00;100.00
23616;BME280;11985;49.404;7.734;2022-12-22T23:11:13;96153.41;;;8.01;100.00
23616;BME280;11985;49.404;7.734;2022-12-22T23:16:28;96149.75;;;8.02;100.00
23616;BME280;11985;49.404;7.734;2022-12-22T23:21:35;96149.75;;;8.02;100.00
23616;BME280;11985;49.404;7.734;2022-12-22T23:26:44;96155.81;;;8.02;100.00
23616;BME280;11985;49.404;7.734;2022-12-22T23:31:47;96155.38;;;8.05;100.00
23616;BME280;11985;49.404;7.734;2022-12-22T23:36:49;96143.44;;;8.09;100.00
23616;BME280;11985;49.404;7.734;2022-12-22T23:41:51;96144.38;;;8.15;100.00
23616;BME280;11985;49.404;7.734;2022-12-22T23:46:54;96146.72;;;8.23;100.00
23616;BME280;11985;49.404;7.734;2022-12-22T23:51:55;96152.28;;;8.33;100.00
23616;BME280;11985;49.404;7.734;2022-12-22T23:56:57;96160.16;;;8.52;100.00
